Time;durP1;ratioP1;P1;durP2;ratioP2;P2;SDS_P1;SDS_P2;PMS_P1;PMS_P2;Temp;Humidity;BMP_temperature;BMP_pressure;BME280_temperature;BME280_humidity;BME280_pressure;Samples;Min_cycle;Max_cycle;Signal;HPM_P1;HPM_P2
2022/02/28 00:02:09;;;;;;;8.75;1.23;;;;;;;;;;4994898;28;20062;-42
2022/02/28 00:04:36;;;;;;;6.25;1.10;;;;;;;;;;4995751;28;20031;-40
2022/02/28 00:07:03;;;;;;;7.20;1.17;;;;;;;;;;4995621;28;20034;-41
2022/02/28 00:09:30;;;;;;;12.18;1.48;;;;;;;;;;4995338;28;20089;-40
2022/02/28 00:11:57;;;;;;;13.18;1.70;;;;;;;;;;4994642;28;20030;-37
2022/02/28 00:14:24;;;;;;;6.75;1.20;;;;;;;;;;4995602;28;20054;-40
2022/02/28 00:16:51;;;;;;;11.00;1.30;;;;;;;;;;4995290;28;20030;-42
2022/02/28 00:19:18;;;;;;;10.25;1.90;;;;;;;;;;4995162;28;20022;-42
2022/02/28 00:21:45;;;;;;;9.43;1.52;;;;;;;;;;4995697;28;20539;-40
2022/02/28 00:24:12;;;;;;;7.47;1.38;;;;;;;;;;4994556;28;20080;-39
2022/02/28 00:26:39;;;;;;;8.80;1.50;;;;;;;;;;4995449;28;20521;-42
2022/02/28 00:29:06;;;;;;;7.47;1.75;;;;;;;;;;4994958;28;20497;-42
2022/02/28 00:31:33;;;;;;;6.47;1.60;;;;;;;;;;4994863;28;20030;-37
2022/02/28 00:34:00;;;;;;;9.40;1.73;;;;;;;;;;4995537;28;20038;-42
2022/02/28 00:36:27;;;;;;;11.43;2.40;;;;;;;;;;4993887;28;20492;-40
2022/02/28 00:38:55;;;;;;;14.13;2.35;;;;;;;;;;4994366;28;20035;-41
2022/02/28 00:41:22;;;;;;;17.10;2.30;;;;;;;;;;4993345;28;20405;-43
2022/02/28 00:43:49;;;;;;;15.88;2.70;;;;;;;;;;4994885;28;20392;-44
2022/02/28 00:46:16;;;;;;;28.80;3.95;;;;;;;;;;4995173;28;20045;-44
2022/02/28 00:48:43;;;;;;;30.73;3.97;;;;;;;;;;4994216;28;20033;-40
2022/02/28 00:51:10;;;;;;;25.45;4.13;;;;;;;;;;4994318;28;20034;-44
2022/02/28 00:53:37;;;;;;;31.60;3.97;;;;;;;;;;4993942;28;20146;-44
2022/02/28 00:56:04;;;;;;;30.98;4.38;;;;;;;;;;4993796;28;20023;-41
2022/02/28 00:58:31;;;;;;;25.95;4.57;;;;;;;;;;4994901;28;20030;-44
2022/02/28 01:00:58;;;;;;;23.20;3.65;;;;;;;;;;4994048;28;20113;-44
2022/02/28 01:03:27;;;;;;;33.83;4.47;;;;;;;;;;4994619;28;20038;-42
2022/02/28 01:05:54;;;;;;;26.30;3.90;;;;;;;;;;4994031;28;20034;-40
2022/02/28 01:08:21;;;;;;;29.13;4.97;;;;;;;;;;4994041;28;20137;-44
2022/02/28 01:10:49;;;;;;;34.22;4.53;;;;;;;;;;4994114;28;20038;-44
2022/02/28 01:13:16;;;;;;;34.72;5.10;;;;;;;;;;4994406;28;20027;-41
2022/02/28 01:15:43;;;;;;;39.92;5.13;;;;;;;;;;4993532;28;20034;-41
2022/02/28 01:18:10;;;;;;;36.45;4.93;;;;;;;;;;4993672;28;20518;-43
2022/02/28 01:20:37;;;;;;;48.92;5.53;;;;;;;;;;4994465;28;20030;-43
2022/02/28 01:23:05;;;;;;;39.85;5.45;;;;;;;;;;4993745;28;20393;-40
2022/02/28 01:25:32;;;;;;;47.13;5.93;;;;;;;;;;4994261;28;20034;-44
2022/02/28 01:27:59;;;;;;;45.28;6.05;;;;;;;;;;4993391;28;20026;-40
2022/02/28 01:30:26;;;;;;;49.80;6.85;;;;;;;;;;4994238;28;20474;-43
2022/02/28 01:32:53;;;;;;;46.47;6.90;;;;;;;;;;4993372;28;20381;-42
2022/02/28 01:35:20;;;;;;;57.10;8.10;;;;;;;;;;4993365;28;20045;-42
2022/02/28 01:37:47;;;;;;;56.83;7.55;;;;;;;;;;4993943;28;20034;-44
2022/02/28 01:40:15;;;;;;;57.03;8.55;;;;;;;;;;4993344;28;20030;-44
2022/02/28 01:42:42;;;;;;;53.05;6.70;;;;;;;;;;4994036;28;20080;-44
2022/02/28 01:45:10;;;;;;;54.40;7.72;;;;;;;;;;4992877;28;20500;-44
2022/02/28 01:47:38;;;;;;;53.70;8.13;;;;;;;;;;4994135;28;20129;-43
2022/02/28 01:50:05;;;;;;;56.03;8.75;;;;;;;;;;4993550;28;20022;-44
2022/02/28 01:52:32;;;;;;;60.47;8.00;;;;;;;;;;4993842;28;20022;-44
2022/02/28 01:54:59;;;;;;;50.55;8.23;;;;;;;;;;4992795;28;20027;-44
2022/02/28 01:57:26;;;;;;;50.75;8.23;;;;;;;;;;4993036;28;20138;-40
2022/02/28 01:59:53;;;;;;;51.50;7.78;;;;;;;;;;4993694;28;20488;-43
2022/02/28 02:02:20;;;;;;;53.70;10.23;;;;;;;;;;4993692;28;20040;-41
2022/02/28 02:04:49;;;;;;;46.03;7.18;;;;;;;;;;4993291;28;20037;-39
2022/02/28 02:07:16;;;;;;;58.22;8.35;;;;;;;;;;4993597;28;20042;-41
2022/02/28 02:09:43;;;;;;;53.13;8.05;;;;;;;;;;4993376;28;20050;-44
2022/02/28 02:12:11;;;;;;;57.60;8.50;;;;;;;;;;4992821;28;20053;-45
2022/02/28 02:14:38;;;;;;;47.15;8.05;;;;;;;;;;4992544;28;20114;-40
2022/02/28 02:17:05;;;;;;;60.95;7.75;;;;;;;;;;4993486;28;20085;-44
2022/02/28 02:19:33;;;;;;;51.17;8.18;;;;;;;;;;4993270;28;20036;-42
2022/02/28 02:22:00;;;;;;;55.53;7.68;;;;;;;;;;4992627;28;20452;-38
2022/02/28 02:24:27;;;;;;;50.88;8.32;;;;;;;;;;4992696;28;20040;-44
2022/02/28 02:26:54;;;;;;;44.63;7.90;;;;;;;;;;4993054;28;20053;-43
2022/02/28 02:29:20;;;;;;;47.92;7.80;;;;;;;;;;4992747;28;20030;-41
2022/02/28 02:31:47;;;;;;;43.67;8.18;;;;;;;;;;4993296;28;20036;-40
2022/02/28 02:34:14;;;;;;;46.70;8.35;;;;;;;;;;4992104;28;20489;-41
2022/02/28 02:36:42;;;;;;;47.90;8.10;;;;;;;;;;4992779;28;20508;-44
2022/02/28 02:39:09;;;;;;;48.45;7.72;;;;;;;;;;4992655;28;20065;-42
2022/02/28 02:41:37;;;;;;;45.17;6.93;;;;;;;;;;4991894;28;20030;-43
2022/02/28 02:44:04;;;;;;;51.72;8.82;;;;;;;;;;4993142;28;20066;-44
2022/02/28 02:46:31;;;;;;;37.42;7.43;;;;;;;;;;4992531;28;20030;-43
2022/02/28 02:48:57;;;;;;;43.08;7.53;;;;;;;;;;4992603;28;20044;-41
2022/02/28 02:51:24;;;;;;;41.47;8.05;;;;;;;;;;4974452;28;20035;-43
2022/02/28 02:53:51;;;;;;;45.85;7.78;;;;;;;;;;4992936;28;20026;-44
2022/02/28 02:56:19;;;;;;;37.97;7.55;;;;;;;;;;4992482;28;20038;-44
2022/02/28 02:58:46;;;;;;;41.85;7.88;;;;;;;;;;4992525;28;20038;-43
2022/02/28 03:01:13;;;;;;;37.40;6.57;;;;;;;;;;4992665;28;20113;-44
2022/02/28 03:03:40;;;;;;;35.08;7.05;;;;;;;;;;4992393;28;20118;-41
2022/02/28 03:06:07;;;;;;;36.40;6.75;;;;;;;;;;4992708;28;20030;-43
2022/02/28 03:08:34;;;;;;;43.20;6.93;;;;;;;;;;4974639;28;20085;-41
2022/02/28 03:11:01;;;;;;;39.25;7.57;;;;;;;;;;4992066;28;20041;-43
2022/02/28 03:13:28;;;;;;;29.30;6.30;;;;;;;;;;4992215;28;20030;-42
2022/02/28 03:15:55;;;;;;;40.72;8.25;;;;;;;;;;4992068;28;20030;-42
2022/02/28 03:18:22;;;;;;;36.45;7.20;;;;;;;;;;4995029;28;20038;-40
2022/02/28 03:20:49;;;;;;;39.40;7.03;;;;;;;;;;4996845;28;20392;-41
2022/02/28 03:23:16;;;;;;;41.13;8.00;;;;;;;;;;4995587;28;20080;-43
2022/02/28 03:25:43;;;;;;;29.52;6.68;;;;;;;;;;4996018;28;20406;-41
2022/02/28 03:28:10;;;;;;;34.28;7.05;;;;;;;;;;4996253;28;20200;-43
2022/02/28 03:30:37;;;;;;;36.28;7.43;;;;;;;;;;4995561;28;20117;-42
2022/02/28 03:33:04;;;;;;;36.00;6.60;;;;;;;;;;4996576;28;20070;-41
2022/02/28 03:35:31;;;;;;;29.48;7.22;;;;;;;;;;4995893;28;20887;-43
2022/02/28 03:37:58;;;;;;;38.70;7.18;;;;;;;;;;4995998;28;20023;-43
2022/02/28 03:40:25;;;;;;;36.40;6.18;;;;;;;;;;4996415;28;20556;-44
2022/02/28 03:42:52;;;;;;;33.63;6.80;;;;;;;;;;4995307;28;20091;-43
2022/02/28 03:45:19;;;;;;;29.17;7.15;;;;;;;;;;4995783;28;20026;-43
2022/02/28 03:47:46;;;;;;;35.47;6.82;;;;;;;;;;4996144;28;20026;-43
2022/02/28 03:50:13;;;;;;;33.22;6.35;;;;;;;;;;4995343;28;20030;-43
2022/02/28 03:52:40;;;;;;;43.15;7.82;;;;;;;;;;4995024;28;20161;-43
2022/02/28 03:55:08;;;;;;;26.85;6.50;;;;;;;;;;4995879;28;20558;-43
2022/02/28 03:57:35;;;;;;;35.63;7.55;;;;;;;;;;4995496;28;20039;-40
2022/02/28 04:00:02;;;;;;;31.17;6.38;;;;;;;;;;4995669;28;20034;-43
2022/02/28 04:02:29;;;;;;;37.67;6.32;;;;;;;;;;4994942;28;20702;-43
2022/02/28 04:04:56;;;;;;;29.95;5.93;;;;;;;;;;4995813;28;20026;-43
2022/02/28 04:07:22;;;;;;;31.05;7.13;;;;;;;;;;4995862;28;20105;-43
2022/02/28 04:09:49;;;;;;;29.13;6.78;;;;;;;;;;4994749;28;20045;-40
2022/02/28 04:12:16;;;;;;;29.58;6.43;;;;;;;;;;4995727;28;20030;-43
2022/02/28 04:14:43;;;;;;;28.25;6.65;;;;;;;;;;4994857;28;20033;-43
2022/02/28 04:17:10;;;;;;;24.77;5.85;;;;;;;;;;4995692;28;20065;-43
2022/02/28 04:19:37;;;;;;;30.90;6.47;;;;;;;;;;4995490;28;20037;-43
2022/02/28 04:22:05;;;;;;;33.60;6.28;;;;;;;;;;4977690;28;20566;-43
2022/02/28 04:24:32;;;;;;;28.90;6.40;;;;;;;;;;4994560;28;20085;-43
2022/02/28 04:26:59;;;;;;;28.95;5.45;;;;;;;;;;4995155;28;20039;-40
2022/02/28 04:29:26;;;;;;;26.70;7.25;;;;;;;;;;4994757;28;20038;-43
2022/02/28 04:31:53;;;;;;;27.13;6.05;;;;;;;;;;4995505;28;20022;-39
2022/02/28 04:34:20;;;;;;;26.40;6.32;;;;;;;;;;4994446;28;20038;-42
2022/02/28 04:36:47;;;;;;;24.38;5.63;;;;;;;;;;4995472;28;20122;-41
2022/02/28 04:39:14;;;;;;;30.73;5.78;;;;;;;;;;4994891;28;20038;-43
2022/02/28 04:41:41;;;;;;;18.30;5.30;;;;;;;;;;4994987;28;20038;-43
2022/02/28 04:44:08;;;;;;;23.60;5.43;;;;;;;;;;4993988;28;20047;-43
2022/02/28 04:46:35;;;;;;;17.65;5.07;;;;;;;;;;4995332;28;20038;-43
2022/02/28 04:49:02;;;;;;;23.38;5.57;;;;;;;;;;4994437;28;20042;-43
2022/02/28 04:51:29;;;;;;;29.73;5.80;;;;;;;;;;4994961;28;20137;-42
2022/02/28 04:53:56;;;;;;;25.00;5.28;;;;;;;;;;4983140;28;20654;-45
2022/02/28 04:56:23;;;;;;;25.00;5.20;;;;;;;;;;4986233;28;20030;-39
2022/02/28 04:58:51;;;;;;;20.05;4.93;;;;;;;;;;4994781;28;20034;-35
2022/02/28 05:01:18;;;;;;;18.90;2.78;;;;;;;;;;4994121;28;20026;-43
2022/02/28 05:03:45;;;;;;;11.13;2.10;;;;;;;;;;4982974;28;20035;-43
2022/02/28 05:06:12;;;;;;;15.65;2.05;;;;;;;;;;4986885;28;20109;-43
2022/02/28 05:08:39;;;;;;;11.52;1.90;;;;;;;;;;4993065;28;20042;-43
2022/02/28 05:11:06;;;;;;;9.55;2.45;;;;;;;;;;4994410;28;20030;-42
2022/02/28 05:13:33;;;;;;;10.75;2.08;;;;;;;;;;4987564;28;20030;-43
2022/02/28 05:16:00;;;;;;;11.98;2.55;;;;;;;;;;4980118;28;20034;-44
2022/02/28 05:18:27;;;;;;;13.02;2.50;;;;;;;;;;4974281;28;20597;-43
2022/02/28 05:20:57;;;;;;;11.30;2.30;;;;;;;;;;4973642;28;20493;-43
2022/02/28 05:23:24;;;;;;;13.10;2.83;;;;;;;;;;4988247;28;20038;-44
2022/02/28 05:25:51;;;;;;;11.32;2.53;;;;;;;;;;4994200;28;20029;-43
2022/02/28 05:28:18;;;;;;;13.98;2.63;;;;;;;;;;4993434;28;20034;-43
2022/02/28 05:30:47;;;;;;;7.13;2.30;;;;;;;;;;4994289;28;20034;-44
2022/02/28 05:33:15;;;;;;;12.82;2.95;;;;;;;;;;4993099;28;20089;-44
2022/02/28 05:35:42;;;;;;;7.75;2.65;;;;;;;;;;4994106;28;20046;-44
2022/02/28 05:38:10;;;;;;;13.25;2.40;;;;;;;;;;4993164;28;20041;-44
2022/02/28 05:40:37;;;;;;;12.07;2.30;;;;;;;;;;4993778;28;20042;-43
2022/02/28 05:43:04;;;;;;;6.18;1.63;;;;;;;;;;4993106;28;20049;-44
2022/02/28 05:45:36;;;;;;;11.60;2.50;;;;;;;;;;4993958;28;20512;-43
2022/02/28 05:48:04;;;;;;;7.63;2.15;;;;;;;;;;4994313;28;20038;-43
2022/02/28 05:50:31;;;;;;;9.15;1.80;;;;;;;;;;4993704;28;20218;-44
2022/02/28 05:53:02;;;;;;;8.45;1.63;;;;;;;;;;4993437;28;20022;-43
2022/02/28 05:55:29;;;;;;;12.85;1.88;;;;;;;;;;4991519;28;20034;-44
2022/02/28 05:57:56;;;;;;;20.33;2.95;;;;;;;;;;4993609;28;20089;-43
2022/02/28 06:00:23;;;;;;;23.17;2.50;;;;;;;;;;4993686;28;20030;-44
2022/02/28 06:02:51;;;;;;;24.65;2.55;;;;;;;;;;4993499;28;20044;-43
2022/02/28 06:05:19;;;;;;;26.40;2.63;;;;;;;;;;4993566;28;20053;-45
2022/02/28 06:07:46;;;;;;;21.65;2.22;;;;;;;;;;4993535;28;20057;-44
2022/02/28 06:10:13;;;;;;;38.25;3.22;;;;;;;;;;4993763;28;20085;-44
2022/02/28 06:12:40;;;;;;;31.88;3.25;;;;;;;;;;4993739;28;20242;-43
2022/02/28 06:15:07;;;;;;;14.63;1.77;;;;;;;;;;4976007;28;20030;-43
2022/02/28 06:17:35;;;;;;;13.73;2.10;;;;;;;;;;4993651;28;20038;-44
2022/02/28 06:20:04;;;;;;;9.32;1.58;;;;;;;;;;4993475;28;20505;-44
2022/02/28 06:22:31;;;;;;;13.63;1.85;;;;;;;;;;4993468;28;20046;-44
2022/02/28 06:24:58;;;;;;;9.88;1.50;;;;;;;;;;4993497;28;20120;-44
2022/02/28 06:27:25;;;;;;;6.75;1.70;;;;;;;;;;4993526;28;20508;-44
2022/02/28 06:29:52;;;;;;;22.17;1.63;;;;;;;;;;4993484;28;20113;-44
2022/02/28 06:32:22;;;;;;;11.73;1.25;;;;;;;;;;4993475;28;20026;-43
2022/02/28 06:34:49;;;;;;;17.27;1.65;;;;;;;;;;4993314;28;20034;-44
2022/02/28 06:37:16;;;;;;;29.30;1.83;;;;;;;;;;4993348;28;20030;-43
2022/02/28 06:39:45;;;;;;;16.25;1.70;;;;;;;;;;4993262;28;20113;-44
2022/02/28 06:42:12;;;;;;;27.73;1.83;;;;;;;;;;4992967;28;20114;-43
2022/02/28 06:44:39;;;;;;;17.70;1.77;;;;;;;;;;4993023;28;20069;-44
2022/02/28 06:47:06;;;;;;;26.17;2.00;;;;;;;;;;4993221;28;20030;-45
2022/02/28 06:49:33;;;;;;;20.33;1.70;;;;;;;;;;4993199;28;20030;-45
2022/02/28 06:52:00;;;;;;;19.95;1.95;;;;;;;;;;4992179;28;20113;-45
2022/02/28 06:57:12;;;;;;;14.93;1.40;;;;;;;;;;4962329;28;20048;-36
2022/02/28 06:59:39;;;;;;;20.65;1.73;;;;;;;;;;4952824;28;20028;-36
2022/02/28 07:02:06;;;;;;;23.95;1.70;;;;;;;;;;4972204;28;20062;-35
2022/02/28 07:04:33;;;;;;;32.33;2.55;;;;;;;;;;4972579;28;20039;-36
2022/02/28 07:07:00;;;;;;;59.47;4.32;;;;;;;;;;4971801;28;20050;-34
2022/02/28 07:09:27;;;;;;;73.38;4.88;;;;;;;;;;4972752;28;20053;-35
2022/02/28 07:11:54;;;;;;;63.85;5.53;;;;;;;;;;4973296;28;20019;-33
2022/02/28 07:14:21;;;;;;;54.03;4.47;;;;;;;;;;4971175;28;20058;-36
2022/02/28 07:16:48;;;;;;;41.97;3.75;;;;;;;;;;4973582;28;20393;-33
2022/02/28 07:19:15;;;;;;;47.28;4.43;;;;;;;;;;4972368;28;20045;-35
2022/02/28 07:21:42;;;;;;;50.17;3.55;;;;;;;;;;4973181;28;20502;-35
2022/02/28 07:24:09;;;;;;;40.35;2.75;;;;;;;;;;4972473;28;20035;-35
2022/02/28 07:26:36;;;;;;;32.22;2.70;;;;;;;;;;4973288;28;20034;-36
2022/02/28 07:29:03;;;;;;;30.90;2.42;;;;;;;;;;4973009;28;20357;-35
2022/02/28 07:31:30;;;;;;;31.15;2.70;;;;;;;;;;4972775;28;20093;-35
2022/02/28 07:33:57;;;;;;;22.33;2.55;;;;;;;;;;4972828;28;20043;-35
2022/02/28 07:36:24;;;;;;;16.58;2.15;;;;;;;;;;4972958;28;20109;-36
2022/02/28 07:38:51;;;;;;;12.80;2.38;;;;;;;;;;4973086;28;20031;-35
2022/02/28 07:41:18;;;;;;;8.52;1.90;;;;;;;;;;4971853;28;20085;-35
2022/02/28 07:43:45;;;;;;;10.48;2.22;;;;;;;;;;4972935;28;20077;-36
2022/02/28 07:46:12;;;;;;;17.23;2.28;;;;;;;;;;4972235;28;20062;-37
2022/02/28 07:48:39;;;;;;;11.77;2.25;;;;;;;;;;4973148;28;20101;-37
2022/02/28 07:51:06;;;;;;;17.13;2.72;;;;;;;;;;4972151;28;20041;-37
2022/02/28 07:53:33;;;;;;;9.85;1.95;;;;;;;;;;4973138;28;20430;-37
2022/02/28 07:56:00;;;;;;;12.00;2.58;;;;;;;;;;4972471;28;20440;-37
2022/02/28 07:58:27;;;;;;;13.50;2.35;;;;;;;;;;4972239;28;20031;-37
2022/02/28 08:00:54;;;;;;;10.00;2.13;;;;;;;;;;4972492;28;20027;-37
2022/02/28 08:03:21;;;;;;;8.73;1.80;;;;;;;;;;4973111;28;20042;-37
2022/02/28 08:05:47;;;;;;;9.70;2.15;;;;;;;;;;4976181;28;20042;-37
2022/02/28 08:08:14;;;;;;;7.97;2.15;;;;;;;;;;4976421;28;20034;-37
2022/02/28 08:10:42;;;;;;;9.48;2.50;;;;;;;;;;4975544;28;20050;-37
2022/02/28 08:13:11;;;;;;;29.30;3.10;;;;;;;;;;4976326;28;20023;-36
2022/02/28 08:15:39;;;;;;;45.22;4.63;;;;;;;;;;4975554;28;20027;-36
2022/02/28 08:18:06;;;;;;;69.07;6.38;;;;;;;;;;4975987;28;20037;-37
2022/02/28 08:20:33;;;;;;;59.13;6.07;;;;;;;;;;4976236;28;20034;-37
2022/02/28 08:23:04;;;;;;;43.83;4.20;;;;;;;;;;4975079;28;20125;-36
2022/02/28 08:25:31;;;;;;;40.10;4.05;;;;;;;;;;4976140;28;20034;-36
2022/02/28 08:27:59;;;;;;;19.17;3.35;;;;;;;;;;4973937;28;20085;-36
2022/02/28 08:30:26;;;;;;;17.67;3.03;;;;;;;;;;4975887;28;20488;-36
2022/02/28 08:32:54;;;;;;;16.67;2.63;;;;;;;;;;4976033;28;20051;-36
2022/02/28 08:35:21;;;;;;;9.55;2.45;;;;;;;;;;4974947;28;20038;-36
2022/02/28 08:37:48;;;;;;;10.68;2.08;;;;;;;;;;4975928;28;20170;-37
2022/02/28 08:40:15;;;;;;;8.93;2.50;;;;;;;;;;4975166;28;20038;-37
2022/02/28 08:42:42;;;;;;;18.00;2.70;;;;;;;;;;4975512;28;20082;-37
2022/02/28 08:45:09;;;;;;;11.77;2.67;;;;;;;;;;4974740;28;20555;-36
2022/02/28 08:47:37;;;;;;;15.05;2.95;;;;;;;;;;4974587;28;20035;-36
2022/02/28 08:50:05;;;;;;;36.70;3.97;;;;;;;;;;4975237;28;20043;-35
2022/02/28 08:52:32;;;;;;;17.83;2.78;;;;;;;;;;4975718;28;20062;-35
2022/02/28 08:55:00;;;;;;;17.38;2.97;;;;;;;;;;4974532;28;20037;-35
2022/02/28 08:57:27;;;;;;;6.75;2.10;;;;;;;;;;4975199;28;20078;-36
2022/02/28 08:59:54;;;;;;;14.00;2.78;;;;;;;;;;4975333;28;20084;-36
2022/02/28 09:02:22;;;;;;;11.13;2.47;;;;;;;;;;4975381;28;20050;-36
2022/02/28 09:04:49;;;;;;;11.10;2.20;;;;;;;;;;4974599;28;20043;-36
2022/02/28 09:07:16;;;;;;;6.88;1.80;;;;;;;;;;4974954;28;20483;-35
2022/02/28 09:09:43;;;;;;;12.52;1.67;;;;;;;;;;4974826;28;20050;-36
2022/02/28 09:12:10;;;;;;;10.45;1.83;;;;;;;;;;4975150;28;20034;-36
2022/02/28 09:14:38;;;;;;;5.35;1.40;;;;;;;;;;4974039;28;20227;-36
2022/02/28 09:17:06;;;;;;;9.38;2.10;;;;;;;;;;4974595;28;20049;-36
2022/02/28 09:19:33;;;;;;;9.50;1.20;;;;;;;;;;4974766;28;20392;-35
2022/02/28 09:22:00;;;;;;;10.10;1.50;;;;;;;;;;4975188;28;20027;-36
2022/02/28 09:24:28;;;;;;;9.73;1.67;;;;;;;;;;4974696;28;20038;-37
2022/02/28 09:26:56;;;;;;;8.20;1.48;;;;;;;;;;4974524;28;20616;-35
2022/02/28 09:29:23;;;;;;;14.10;1.38;;;;;;;;;;4974141;28;20110;-34
2022/02/28 09:31:50;;;;;;;5.80;1.45;;;;;;;;;;4975083;28;20502;-34
2022/02/28 09:34:17;;;;;;;8.45;1.45;;;;;;;;;;4974462;28;20046;-36
2022/02/28 09:36:44;;;;;;;12.93;1.60;;;;;;;;;;4974476;28;20050;-36
2022/02/28 09:39:11;;;;;;;18.92;1.60;;;;;;;;;;4973804;28;20046;-34
2022/02/28 09:41:38;;;;;;;9.63;1.58;;;;;;;;;;4974355;28;20082;-36
2022/02/28 09:44:06;;;;;;;8.25;1.40;;;;;;;;;;4974109;28;20109;-34
2022/02/28 09:46:34;;;;;;;6.50;1.05;;;;;;;;;;4973604;28;20802;-35
2022/02/28 09:49:02;;;;;;;22.52;2.08;;;;;;;;;;4974274;28;20031;-35
2022/02/28 09:51:29;;;;;;;18.20;1.63;;;;;;;;;;4974176;28;20447;-35
2022/02/28 09:53:56;;;;;;;17.15;1.73;;;;;;;;;;4974126;28;20030;-36
2022/02/28 09:56:25;;;;;;;47.88;4.43;;;;;;;;;;4973507;28;20122;-35
2022/02/28 09:58:52;;;;;;;82.90;6.82;;;;;;;;;;4974406;28;20070;-36
2022/02/28 10:01:19;;;;;;;81.95;5.32;;;;;;;;;;4973996;28;20034;-37
2022/02/28 10:03:46;;;;;;;44.17;3.13;;;;;;;;;;4972302;28;20514;-36
2022/02/28 10:06:14;;;;;;;18.45;2.00;;;;;;;;;;4974282;28;20045;-37
2022/02/28 10:08:42;;;;;;;11.52;1.83;;;;;;;;;;4973374;28;20042;-37
2022/02/28 10:11:24;;;;;;;13.40;1.58;;;;;;;;;;4973503;28;20409;-37
2022/02/28 10:13:52;;;;;;;12.88;1.50;;;;;;;;;;4973731;28;20045;-36
2022/02/28 10:16:37;;;;;;;7.88;1.60;;;;;;;;;;4973224;28;20373;-36
2022/02/28 10:19:12;;;;;;;8.77;1.40;;;;;;;;;;4974246;28;20038;-34
2022/02/28 10:21:44;;;;;;;7.35;1.38;;;;;;;;;;4973374;28;20038;-35
2022/02/28 10:24:12;;;;;;;21.65;1.80;;;;;;;;;;4973801;28;20687;-35
2022/02/28 10:26:42;;;;;;;14.25;1.13;;;;;;;;;;4972856;28;20480;-36
2022/02/28 10:29:09;;;;;;;10.40;1.48;;;;;;;;;;4974112;28;20560;-36
2022/02/28 10:31:40;;;;;;;12.52;1.30;;;;;;;;;;4973295;28;20041;-36
2022/02/28 10:34:13;;;;;;;9.75;1.10;;;;;;;;;;4973610;28;20038;-36
2022/02/28 10:36:43;;;;;;;15.27;1.63;;;;;;;;;;4973714;28;20093;-35
2022/02/28 10:39:10;;;;;;;15.55;1.58;;;;;;;;;;4972866;28;20042;-34
2022/02/28 10:41:44;;;;;;;6.05;1.60;;;;;;;;;;4973897;28;20366;-35
2022/02/28 10:44:13;;;;;;;9.82;1.50;;;;;;;;;;4973169;28;20034;-35
2022/02/28 10:46:42;;;;;;;12.70;1.60;;;;;;;;;;4974420;28;20039;-35
2022/02/28 10:49:09;;;;;;;11.52;1.85;;;;;;;;;;4974695;28;20038;-35
2022/02/28 10:51:49;;;;;;;9.15;1.50;;;;;;;;;;4973885;28;20046;-35
2022/02/28 10:54:18;;;;;;;9.55;1.20;;;;;;;;;;4972741;28;20489;-36
2022/02/28 10:56:46;;;;;;;16.42;1.67;;;;;;;;;;4973378;28;20448;-36
2022/02/28 10:59:14;;;;;;;8.10;1.30;;;;;;;;;;4972611;28;20077;-36
2022/02/28 11:01:41;;;;;;;9.80;1.52;;;;;;;;;;4973580;28;20054;-36
2022/02/28 11:04:08;;;;;;;7.05;1.20;;;;;;;;;;4971352;28;20042;-36
2022/02/28 11:06:36;;;;;;;7.30;1.30;;;;;;;;;;4973422;28;20058;-35
2022/02/28 11:09:04;;;;;;;14.95;1.65;;;;;;;;;;4972220;28;20030;-36
2022/02/28 11:11:31;;;;;;;8.40;1.80;;;;;;;;;;4972411;28;20041;-36
2022/02/28 11:13:58;;;;;;;16.27;1.85;;;;;;;;;;4973517;28;20030;-34
2022/02/28 11:16:27;;;;;;;9.40;2.08;;;;;;;;;;4972420;28;20500;-34
2022/02/28 11:18:54;;;;;;;9.00;2.00;;;;;;;;;;4973500;28;20488;-34
2022/02/28 11:21:21;;;;;;;10.95;2.40;;;;;;;;;;4973432;28;20392;-36
2022/02/28 11:23:48;;;;;;;7.82;2.00;;;;;;;;;;4972366;28;20031;-36
2022/02/28 11:26:15;;;;;;;7.05;1.83;;;;;;;;;;4973395;28;20122;-36
2022/02/28 11:28:43;;;;;;;6.35;1.70;;;;;;;;;;4972553;28;20023;-35
2022/02/28 11:31:14;;;;;;;10.95;1.42;;;;;;;;;;4971877;28;20496;-36
2022/02/28 11:33:51;;;;;;;5.57;1.70;;;;;;;;;;4972954;28;20058;-36
2022/02/28 11:36:18;;;;;;;11.32;1.67;;;;;;;;;;4972290;28;20370;-36
2022/02/28 11:38:46;;;;;;;9.80;1.35;;;;;;;;;;4975024;28;20488;-34
2022/02/28 11:41:14;;;;;;;11.32;1.50;;;;;;;;;;4976568;28;20034;-35
2022/02/28 11:43:52;;;;;;;13.55;1.52;;;;;;;;;;4976531;28;20053;-34
2022/02/28 11:46:23;;;;;;;7.00;1.38;;;;;;;;;;4976312;28;20039;-36
2022/02/28 11:48:55;;;;;;;11.90;1.80;;;;;;;;;;4975614;28;20528;-34
2022/02/28 11:51:28;;;;;;;9.60;1.40;;;;;;;;;;4976007;28;20034;-34
2022/02/28 11:53:56;;;;;;;7.93;1.20;;;;;;;;;;4976761;28;20022;-35
2022/02/28 11:56:28;;;;;;;11.55;1.35;;;;;;;;;;4976174;28;20060;-37
2022/02/28 11:58:58;;;;;;;12.30;1.40;;;;;;;;;;4976344;28;20042;-35
2022/02/28 12:01:29;;;;;;;11.98;0.95;;;;;;;;;;4976626;28;20500;-35
2022/02/28 12:04:10;;;;;;;10.52;1.42;;;;;;;;;;4975771;28;20050;-35
2022/02/28 12:06:56;;;;;;;5.55;1.00;;;;;;;;;;4976576;28;20165;-35
2022/02/28 12:09:38;;;;;;;10.68;1.85;;;;;;;;;;4976626;28;20035;-34
2022/02/28 12:12:11;;;;;;;10.75;1.30;;;;;;;;;;4975417;28;20023;-35
2022/02/28 12:15:13;;;;;;;10.93;1.33;;;;;;;;;;4975679;28;20542;-37
2022/02/28 12:17:43;;;;;;;18.30;1.77;;;;;;;;;;4934894;29;20032;-36
2022/02/28 12:20:19;;;;;;;9.70;1.33;;;;;;;;;;4968177;28;20049;-36
2022/02/28 12:23:03;;;;;;;8.90;1.25;;;;;;;;;;4974372;28;20591;-36
2022/02/28 12:25:30;;;;;;;16.73;1.85;;;;;;;;;;4975840;28;20397;-34
2022/02/28 12:27:57;;;;;;;13.30;1.30;;;;;;;;;;4975996;28;20062;-35
2022/02/28 12:30:47;;;;;;;12.38;1.50;;;;;;;;;;4975440;28;20023;-35
2022/02/28 12:33:16;;;;;;;9.40;1.35;;;;;;;;;;4976173;28;20425;-34
2022/02/28 12:35:55;;;;;;;5.53;1.20;;;;;;;;;;4974931;28;20039;-35
2022/02/28 12:38:23;;;;;;;10.13;1.25;;;;;;;;;;4975579;28;20030;-34
2022/02/28 12:40:51;;;;;;;10.18;1.33;;;;;;;;;;4975683;28;20089;-35
2022/02/28 12:43:19;;;;;;;7.57;1.20;;;;;;;;;;4975791;28;20069;-35
2022/02/28 12:45:47;;;;;;;8.57;1.30;;;;;;;;;;4974861;28;20076;-35
2022/02/28 12:48:16;;;;;;;31.35;1.95;;;;;;;;;;4975899;28;20598;-35
2022/02/28 12:50:50;;;;;;;8.00;1.00;;;;;;;;;;4975307;28;20034;-36
2022/02/28 12:53:17;;;;;;;20.10;1.77;;;;;;;;;;4975421;28;20073;-36
2022/02/28 12:56:00;;;;;;;11.75;1.20;;;;;;;;;;4975461;28;20070;-36
2022/02/28 12:58:27;;;;;;;15.38;1.77;;;;;;;;;;4974746;28;20031;-36
2022/02/28 13:01:06;;;;;;;15.57;1.70;;;;;;;;;;4975668;28;20034;-36
2022/02/28 13:03:37;;;;;;;22.13;1.65;;;;;;;;;;4974622;28;20038;-37
2022/02/28 13:06:06;;;;;;;23.13;2.45;;;;;;;;;;4975525;28;20074;-37
2022/02/28 13:08:34;;;;;;;29.67;2.00;;;;;;;;;;4974730;28;20030;-37
2022/02/28 13:11:11;;;;;;;42.45;2.28;;;;;;;;;;4975512;28;20031;-36
2022/02/28 13:13:38;;;;;;;33.70;2.40;;;;;;;;;;4974385;28;20031;-36
2022/02/28 13:16:06;;;;;;;37.22;2.30;;;;;;;;;;4975048;28;20038;-35
2022/02/28 13:18:33;;;;;;;17.85;1.63;;;;;;;;;;4974621;28;20035;-35
2022/02/28 13:21:01;;;;;;;17.60;1.67;;;;;;;;;;4974876;28;20034;-34
2022/02/28 13:23:28;;;;;;;20.23;1.67;;;;;;;;;;4967232;28;20404;-36
2022/02/28 13:25:57;;;;;;;29.35;2.17;;;;;;;;;;4964799;28;20102;-35
2022/02/28 13:28:36;;;;;;;21.13;2.03;;;;;;;;;;4964505;28;20378;-34
2022/02/28 13:31:07;;;;;;;42.80;2.00;;;;;;;;;;4963427;28;20094;-34
2022/02/28 13:33:36;;;;;;;24.20;2.03;;;;;;;;;;4963606;28;20592;-36
2022/02/28 13:36:03;;;;;;;40.75;2.35;;;;;;;;;;4963990;28;20034;-36
2022/02/28 13:38:31;;;;;;;30.00;2.72;;;;;;;;;;4964973;28;20027;-36
2022/02/28 13:40:58;;;;;;;29.23;1.88;;;;;;;;;;4963161;28;20451;-35
2022/02/28 13:43:31;;;;;;;18.15;1.73;;;;;;;;;;4963952;28;20492;-37
2022/02/28 13:46:00;;;;;;;27.90;2.22;;;;;;;;;;4963386;28;20054;-37
2022/02/28 13:48:28;;;;;;;20.58;1.75;;;;;;;;;;4960943;28;20034;-37
2022/02/28 13:50:55;;;;;;;32.67;2.47;;;;;;;;;;4964427;28;20035;-36
2022/02/28 13:53:23;;;;;;;42.42;2.65;;;;;;;;;;4963062;28;20038;-37
2022/02/28 13:55:51;;;;;;;41.90;3.13;;;;;;;;;;4969962;28;20050;-34
2022/02/28 13:58:26;;;;;;;31.67;2.80;;;;;;;;;;4961944;28;20027;-37
2022/02/28 14:00:55;;;;;;;31.08;2.20;;;;;;;;;;4964428;28;20362;-35
2022/02/28 14:03:24;;;;;;;29.83;2.03;;;;;;;;;;4968736;28;20047;-35
2022/02/28 14:05:51;;;;;;;21.73;2.33;;;;;;;;;;4974039;28;20073;-33
2022/02/28 14:08:21;;;;;;;13.77;1.92;;;;;;;;;;4971224;28;20039;-33
2022/02/28 14:10:48;;;;;;;17.25;1.40;;;;;;;;;;4968779;28;20039;-33
2022/02/28 14:13:21;;;;;;;21.25;1.88;;;;;;;;;;4961172;28;20034;-34
2022/02/28 14:15:51;;;;;;;15.70;1.73;;;;;;;;;;4961478;28;20031;-34
2022/02/28 14:18:19;;;;;;;18.73;1.75;;;;;;;;;;4961462;28;20042;-38
2022/02/28 14:20:47;;;;;;;23.40;2.13;;;;;;;;;;4963615;28;20027;-37
2022/02/28 14:23:18;;;;;;;16.13;1.80;;;;;;;;;;4960451;28;20500;-37
2022/02/28 14:25:47;;;;;;;19.88;1.40;;;;;;;;;;4961671;28;20027;-36
2022/02/28 14:28:24;;;;;;;14.07;1.67;;;;;;;;;;4961536;28;20062;-35
2022/02/28 14:31:15;;;;;;;16.90;1.90;;;;;;;;;;4961704;28;20552;-36
2022/02/28 14:33:53;;;;;;;20.23;1.73;;;;;;;;;;4962006;28;20033;-37
2022/02/28 14:36:20;;;;;;;15.30;1.42;;;;;;;;;;4963455;28;20022;-37
2022/02/28 14:38:47;;;;;;;16.90;1.75;;;;;;;;;;4962080;28;20039;-37
2022/02/28 14:41:14;;;;;;;13.45;1.35;;;;;;;;;;4961647;28;20522;-37
2022/02/28 14:43:42;;;;;;;18.33;1.65;;;;;;;;;;4961524;28;20122;-37